createdAt,value
2022-08-16T00:01:41.006Z,84.27
2022-08-16T00:04:13.075Z,84.77
2022-08-16T00:06:44.804Z,85.87
2022-08-16T00:09:16.603Z,86.13
2022-08-16T00:11:52.705Z,87.90
2022-08-16T00:14:31.056Z,85.77
2022-08-16T00:17:16.084Z,86.67
2022-08-16T00:19:53.592Z,81.43
2022-08-16T00:22:27.962Z,83.87
2022-08-16T00:24:59.690Z,89.27
2022-08-16T00:27:31.309Z,85.60
2022-08-16T00:30:19.083Z,87.37
2022-08-16T00:32:59.880Z,88.45
2022-08-16T00:35:37.392Z,87.35
2022-08-16T00:38:41.262Z,83.43
2022-08-16T00:41:01.949Z,86.00
2022-08-16T00:43:43.368Z,84.23
2022-08-16T00:46:35.743Z,89.57
2022-08-16T00:49:17.587Z,84.33
2022-08-16T00:51:55.195Z,86.13
2022-08-16T00:54:32.972Z,80.57
2022-08-16T00:57:05.770Z,84.23
2022-08-16T00:59:54.603Z,82.23
2022-08-16T01:02:33.111Z,82.93
2022-08-16T01:05:11.065Z,78.30
2022-08-16T01:07:52.027Z,87.50
2022-08-16T01:10:32.781Z,80.50
2022-08-16T01:13:12.488Z,85.60
2022-08-16T01:15:52.814Z,78.87
2022-08-16T01:18:40.598Z,88.70
2022-08-16T01:21:33.653Z,85.90
2022-08-16T01:24:52.688Z,82.47
2022-08-16T01:27:27.238Z,87.07
2022-08-16T01:30:04.205Z,84.63
2022-08-16T01:32:42.302Z,82.87
2022-08-16T01:35:21.264Z,84.03
2022-08-16T01:37:56.740Z,81.13
2022-08-16T01:40:32.472Z,81.07
2022-08-16T01:43:06.164Z,84.13
2022-08-16T01:45:42.172Z,77.90
2022-08-16T01:48:19.693Z,82.07
2022-08-16T01:51:16.476Z,81.30
2022-08-16T01:53:55.382Z,82.37
2022-08-16T01:56:34.664Z,81.40
2022-08-16T01:59:15.822Z,84.90
2022-08-16T02:01:52.813Z,86.93
2022-08-16T02:04:48.710Z,85.97
2022-08-16T02:07:27.713Z,84.53
2022-08-16T02:10:02.388Z,80.13
2022-08-16T02:12:51.001Z,81.10
2022-08-16T02:15:28.585Z,82.20
2022-08-16T02:20:39.504Z,84.13
2022-08-16T02:23:14.278Z,83.27
2022-08-16T02:25:52.675Z,82.93
2022-08-16T02:28:26.279Z,83.13
2022-08-16T02:31:02.389Z,84.83
2022-08-16T02:33:43.500Z,83.10
2022-08-16T02:36:47.795Z,81.73
2022-08-16T02:39:14.813Z,78.53
2022-08-16T02:41:53.302Z,79.90
2022-08-16T02:44:27.007Z,83.27
2022-08-16T02:47:00.608Z,81.27
2022-08-16T02:49:59.146Z,81.38
2022-08-16T02:52:29.503Z,86.40
2022-08-16T02:55:08.327Z,84.10
2022-08-16T02:57:42.539Z,82.50
2022-08-16T03:00:33.754Z,82.87
2022-08-16T03:03:10.285Z,81.30
2022-08-16T03:05:42.654Z,85.50
2022-08-16T03:08:51.048Z,86.27
2022-08-16T03:11:06.648Z,86.67
2022-08-16T03:13:53.289Z,85.50
2022-08-16T03:16:37.893Z,86.97
2022-08-16T03:19:11.525Z,89.03
2022-08-16T03:21:44.044Z,87.50
2022-08-16T03:24:28.756Z,86.37
2022-08-16T03:27:04.017Z,86.30
2022-08-16T03:29:39.674Z,89.90
2022-08-16T03:32:26.682Z,86.90
2022-08-16T03:34:58.454Z,86.57
2022-08-16T03:37:30.253Z,84.70
2022-08-16T03:40:31.601Z,86.30
2022-08-16T03:43:20.688Z,86.73
2022-08-16T03:45:57.288Z,86.97
2022-08-16T03:48:39.888Z,85.40
2022-08-16T03:51:23.693Z,85.30
2022-08-16T03:54:02.068Z,85.30
2022-08-16T03:59:11.109Z,86.73
2022-08-16T04:01:53.804Z,89.00
2022-08-16T04:04:33.401Z,87.68
2022-08-16T04:07:07.856Z,84.03
2022-08-16T04:09:43.860Z,87.03
2022-08-16T04:12:53.148Z,85.53
2022-08-16T04:15:10.197Z,88.70
2022-08-16T04:17:47.804Z,86.40
2022-08-16T04:20:31.449Z,86.40
2022-08-16T04:23:09.082Z,86.53
2022-08-16T04:25:43.513Z,85.90
2022-08-16T04:28:29.268Z,84.40
2022-08-16T04:31:14.322Z,84.97
2022-08-16T04:33:50.762Z,87.30
2022-08-16T04:36:27.431Z,86.47
2022-08-16T04:38:59.402Z,83.67
2022-08-16T04:41:37.559Z,86.47
2022-08-16T04:44:52.794Z,85.00
2022-08-16T04:47:21.432Z,85.27
2022-08-16T04:49:56.638Z,85.40
2022-08-16T04:52:34.488Z,92.47
2022-08-16T04:55:16.188Z,89.47
2022-08-16T04:57:54.316Z,88.47
2022-08-16T05:00:34.147Z,89.03
2022-08-16T05:03:22.158Z,89.20
2022-08-16T05:06:05.294Z,90.78
2022-08-16T05:08:39.403Z,90.83
2022-08-16T05:11:31.912Z,94.30
2022-08-16T05:14:06.942Z,90.40
2022-08-16T05:16:41.066Z,90.63
2022-08-16T05:19:17.280Z,93.47
2022-08-16T05:22:18.133Z,94.60
2022-08-16T05:24:55.645Z,93.40
2022-08-16T05:27:27.689Z,93.57
2022-08-16T05:30:04.871Z,86.43
2022-08-16T05:32:52.447Z,93.20
2022-08-16T05:35:30.197Z,88.63
2022-08-16T05:38:33.222Z,90.27
2022-08-16T05:41:07.339Z,95.93
2022-08-16T05:43:47.688Z,96.77
2022-08-16T05:46:37.005Z,95.67
2022-08-16T05:49:22.462Z,102.45
2022-08-16T05:52:00.090Z,99.47
2022-08-16T05:54:33.208Z,101.88
2022-08-16T05:57:07.852Z,109.70
2022-08-16T05:59:47.303Z,103.80
2022-08-16T06:02:24.650Z,104.63
2022-08-16T06:05:04.207Z,105.03
2022-08-16T06:07:36.004Z,108.97
2022-08-16T06:10:32.483Z,111.60
2022-08-16T06:13:06.615Z,110.50
2022-08-16T06:15:41.590Z,111.38
2022-08-16T06:18:14.122Z,107.95
2022-08-16T06:20:55.374Z,113.97
2022-08-16T06:23:28.470Z,109.83
2022-08-16T06:26:08.330Z,109.90
2022-08-16T06:28:47.656Z,111.73
2022-08-16T06:31:27.064Z,120.93
2022-08-16T06:34:01.937Z,113.30
2022-08-16T06:36:59.371Z,120.43
2022-08-16T06:39:32.048Z,119.90
2022-08-16T06:42:10.168Z,119.33
2022-08-16T06:45:07.938Z,118.27
2022-08-16T06:47:53.633Z,120.40
2022-08-16T06:50:30.161Z,121.70
2022-08-16T06:53:08.919Z,122.70
2022-08-16T06:55:46.939Z,120.87
2022-08-16T06:58:31.416Z,119.63
2022-08-16T07:01:15.029Z,122.83
2022-08-16T07:03:55.884Z,121.53
2022-08-16T07:06:33.813Z,119.63
2022-08-16T07:09:13.210Z,125.37
2022-08-16T07:11:51.845Z,124.83
2022-08-16T07:14:35.616Z,118.23
2022-08-16T07:17:11.562Z,126.30
2022-08-16T07:20:03.865Z,122.47
2022-08-16T07:22:53.102Z,121.40
2022-08-16T07:25:40.283Z,127.50
2022-08-16T07:28:20.751Z,125.82
2022-08-16T07:33:52.005Z,121.77
2022-08-16T07:36:25.689Z,124.47
2022-08-16T07:38:58.143Z,126.27
2022-08-16T07:41:32.419Z,128.17
2022-08-16T07:44:16.108Z,125.97
2022-08-16T07:46:48.602Z,127.40
2022-08-16T07:49:32.327Z,129.83
2022-08-16T07:52:20.463Z,134.00
2022-08-16T07:54:54.059Z,131.07
2022-08-16T07:57:27.637Z,133.65
2022-08-16T08:00:00.634Z,136.47
2022-08-16T08:02:34.502Z,127.43
2022-08-16T08:05:09.155Z,133.27
2022-08-16T08:07:45.313Z,128.67
2022-08-16T08:10:29.537Z,127.07
2022-08-16T08:13:04.344Z,130.37
2022-08-16T08:15:37.038Z,130.50
2022-08-16T08:18:29.352Z,125.10
2022-08-16T08:21:03.478Z,130.30
2022-08-16T08:23:42.663Z,121.13
2022-08-16T08:26:17.601Z,124.83
2022-08-16T08:28:49.878Z,126.63
2022-08-16T08:31:22.530Z,127.43
2022-08-16T08:33:56.767Z,123.43
2022-08-16T08:36:34.143Z,124.37
2022-08-16T08:39:20.934Z,125.90
2022-08-16T08:41:53.750Z,128.98
2022-08-16T08:44:30.670Z,128.75
2022-08-16T08:47:12.250Z,128.88
2022-08-16T08:49:46.164Z,128.97
2022-08-16T08:52:35.137Z,120.63
2022-08-16T08:55:14.145Z,123.38
2022-08-16T08:57:47.910Z,123.97
2022-08-16T09:00:50.909Z,123.82
2022-08-16T09:03:24.677Z,126.82
2022-08-16T09:06:01.020Z,120.90
2022-08-16T09:08:35.622Z,125.75
2022-08-16T09:11:15.893Z,126.18
2022-08-16T09:13:51.587Z,128.43
2022-08-16T09:17:00.982Z,124.10
2022-08-16T09:19:17.866Z,123.70
2022-08-16T09:22:05.031Z,126.55
2022-08-16T09:24:51.946Z,124.07
2022-08-16T09:27:28.540Z,122.30
2022-08-16T09:30:34.728Z,118.45
2022-08-16T09:33:08.393Z,121.68
2022-08-16T09:35:42.722Z,123.97
2022-08-16T09:41:14.773Z,125.43
2022-08-16T09:43:58.837Z,126.38
2022-08-16T09:46:45.947Z,119.10
2022-08-16T09:49:21.674Z,120.60
2022-08-16T09:51:54.770Z,118.00
2022-08-16T09:57:04.925Z,123.68
2022-08-16T09:59:38.857Z,122.35
2022-08-16T10:02:25.922Z,117.65
2022-08-16T10:04:59.607Z,118.15
2022-08-16T10:07:38.300Z,117.15
2022-08-16T10:10:30.547Z,122.90
2022-08-16T10:13:12.183Z,117.28
2022-08-16T10:15:55.669Z,116.60
2022-08-16T10:19:00.222Z,116.55
2022-08-16T10:21:22.634Z,117.75
2022-08-16T10:23:55.677Z,116.95
2022-08-16T10:27:17.613Z,117.97
2022-08-16T10:29:23.090Z,118.78
2022-08-16T10:31:54.692Z,119.28
2022-08-16T10:34:32.475Z,119.00
2022-08-16T10:37:04.585Z,117.50
2022-08-16T10:39:41.460Z,115.38
2022-08-16T10:42:14.430Z,119.22
2022-08-16T10:44:53.749Z,117.72
2022-08-16T10:47:26.639Z,119.82
2022-08-16T10:50:03.466Z,116.53
2022-08-16T10:58:11.712Z,117.38
2022-08-16T11:00:43.625Z,118.85
2022-08-16T11:06:12.275Z,118.68
2022-08-16T11:11:19.627Z,117.63
2022-08-16T11:19:23.020Z,117.18
2022-08-16T11:25:11.491Z,120.30
2022-08-16T11:27:38.809Z,116.72
2022-08-16T11:30:19.859Z,118.93
2022-08-16T11:32:51.898Z,115.25
2022-08-16T11:38:51.638Z,121.15
2022-08-16T11:41:16.871Z,119.70
2022-08-16T11:43:48.436Z,120.72
2022-08-16T11:46:45.321Z,120.32
2022-08-16T11:49:14.242Z,117.43
2022-08-16T11:51:46.126Z,120.30
2022-08-16T11:54:20.574Z,119.25
2022-08-16T11:56:57.103Z,118.97
2022-08-16T11:59:29.513Z,119.43
2022-08-16T12:02:04.428Z,117.07
2022-08-16T12:04:54.287Z,121.72
2022-08-16T12:07:25.927Z,122.80
2022-08-16T12:09:57.534Z,119.53
2022-08-16T12:12:29.151Z,122.57
2022-08-16T12:15:00.957Z,116.75
2022-08-16T12:17:33.150Z,117.80
2022-08-16T12:20:15.525Z,114.85
2022-08-16T12:22:51.213Z,120.38
2022-08-16T12:25:25.876Z,116.55
2022-08-16T12:27:58.238Z,114.85
2022-08-16T12:30:38.747Z,112.45
2022-08-16T12:33:13.543Z,115.35
2022-08-16T12:35:48.804Z,113.78
2022-08-16T12:38:41.338Z,113.68
2022-08-16T12:41:13.557Z,115.38
2022-08-16T12:43:45.429Z,115.00
2022-08-16T12:46:17.179Z,110.68
2022-08-16T12:48:58.019Z,118.78
2022-08-16T12:51:58.175Z,119.00
2022-08-16T12:54:28.874Z,117.40
2022-08-16T12:57:01.303Z,119.72
2022-08-16T12:59:35.142Z,117.53
2022-08-16T13:02:12.691Z,119.90
2022-08-16T13:05:01.827Z,118.43
2022-08-16T13:07:37.487Z,116.73
2022-08-16T13:10:20.859Z,115.88
2022-08-16T13:13:05.909Z,120.30
2022-08-16T13:18:34.119Z,112.95
2022-08-16T13:21:08.214Z,119.50
2022-08-16T13:23:43.712Z,117.82
2022-08-16T13:26:17.774Z,116.85
2022-08-16T13:28:49.553Z,119.95
2022-08-16T13:31:21.877Z,119.00
2022-08-16T13:33:58.537Z,121.15
2022-08-16T13:36:48.642Z,122.35
2022-08-16T13:39:23.271Z,117.15
2022-08-16T13:41:56.170Z,114.13
2022-08-16T13:44:48.609Z,117.85
2022-08-16T13:47:21.742Z,116.90
2022-08-16T13:49:54.931Z,119.07
2022-08-16T13:52:29.824Z,115.05
2022-08-16T13:55:17.808Z,113.32
2022-08-16T13:58:35.411Z,119.07
2022-08-16T14:00:41.526Z,120.45
2022-08-16T14:03:13.209Z,123.55
2022-08-16T14:05:51.445Z,116.78
2022-08-16T14:08:27.157Z,117.25
2022-08-16T14:10:59.475Z,118.57
2022-08-16T14:13:33.347Z,116.45
2022-08-16T14:16:12.628Z,119.78
2022-08-16T14:18:55.643Z,117.38
2022-08-16T14:21:27.605Z,119.43
2022-08-16T14:24:12.868Z,115.50
2022-08-16T14:27:04.422Z,117.20
2022-08-16T14:29:38.335Z,121.47
2022-08-16T14:32:13.134Z,119.10
2022-08-16T14:35:18.401Z,117.82
2022-08-16T14:37:52.725Z,115.33
2022-08-16T14:40:29.648Z,114.25
2022-08-16T14:43:05.561Z,119.00
2022-08-16T14:45:42.148Z,117.43
2022-08-16T14:48:13.826Z,116.55
2022-08-16T14:50:45.432Z,115.60
2022-08-16T14:53:17.232Z,117.43
2022-08-16T14:55:48.871Z,118.77
2022-08-16T14:58:34.662Z,119.87
2022-08-16T15:01:10.213Z,116.20
2022-08-16T15:03:44.979Z,119.63
2022-08-16T15:06:16.780Z,114.33
2022-08-16T15:08:48.446Z,115.13
2022-08-16T15:11:22.846Z,124.70
2022-08-16T15:13:55.000Z,116.73
2022-08-16T15:16:28.922Z,115.37
2022-08-16T15:19:01.241Z,115.43
2022-08-16T15:21:34.186Z,122.15
2022-08-16T15:24:06.399Z,115.33
2022-08-16T15:26:49.678Z,117.75
2022-08-16T15:29:21.530Z,113.47
2022-08-16T15:32:01.011Z,114.85
2022-08-16T15:34:33.151Z,115.90
2022-08-16T15:37:05.342Z,118.70
2022-08-16T15:39:39.665Z,113.57
2022-08-16T15:42:27.075Z,114.20
2022-08-16T15:44:59.154Z,113.10
2022-08-16T15:47:33.387Z,116.23
2022-08-16T15:50:06.703Z,113.47
2022-08-16T15:52:45.138Z,115.83
2022-08-16T15:55:34.765Z,111.77
2022-08-16T15:58:38.180Z,109.60
2022-08-16T16:00:59.618Z,119.50
2022-08-16T16:03:34.547Z,114.13
2022-08-16T16:06:06.642Z,117.37
2022-08-16T16:08:41.694Z,123.73
2022-08-16T16:11:14.546Z,114.37
2022-08-16T16:13:46.238Z,117.87
2022-08-16T16:16:19.666Z,114.57
2022-08-16T16:18:52.914Z,115.73
2022-08-16T16:21:25.738Z,115.63
2022-08-16T16:23:57.984Z,116.47
2022-08-16T16:26:33.124Z,113.37
2022-08-16T16:29:07.599Z,116.77
2022-08-16T16:31:59.830Z,111.63
2022-08-16T16:34:35.473Z,117.07
2022-08-16T16:37:10.131Z,117.33
2022-08-16T16:39:42.227Z,113.13
2022-08-16T16:42:29.209Z,120.93
2022-08-16T16:45:04.890Z,117.07
2022-08-16T16:47:41.414Z,117.87
2022-08-16T16:52:50.514Z,115.13
2022-08-16T16:55:25.935Z,116.60
2022-08-16T16:58:18.179Z,114.97
2022-08-16T17:01:07.494Z,113.93
2022-08-16T17:03:39.113Z,114.63
2022-08-16T17:06:10.891Z,114.73
2022-08-16T17:08:43.086Z,116.67
2022-08-16T17:11:16.163Z,114.80
2022-08-16T17:13:49.982Z,114.70
2022-08-16T17:16:23.040Z,112.97
2022-08-16T17:19:17.516Z,111.07
2022-08-16T17:21:50.727Z,110.63
2022-08-16T17:24:33.059Z,111.93
2022-08-16T17:27:11.933Z,115.77
2022-08-16T17:29:51.378Z,113.00
2022-08-16T17:32:33.625Z,114.87
2022-08-16T17:35:24.229Z,111.83
2022-08-16T17:38:09.185Z,111.17
2022-08-16T17:40:58.191Z,113.93
2022-08-16T17:43:33.549Z,110.43
2022-08-16T17:46:06.875Z,112.50
2022-08-16T17:48:58.483Z,109.47
2022-08-16T17:51:30.182Z,111.87
2022-08-16T17:54:03.484Z,110.40
2022-08-16T17:56:35.212Z,113.88
2022-08-16T17:59:06.883Z,113.10
2022-08-16T18:01:38.577Z,112.97
2022-08-16T18:04:10.316Z,112.27
2022-08-16T18:06:41.946Z,106.83
2022-08-16T18:09:14.944Z,113.60
2022-08-16T18:11:46.900Z,111.30
2022-08-16T18:14:19.332Z,114.63
2022-08-16T18:17:10.911Z,109.93
2022-08-16T18:19:42.599Z,110.73
2022-08-16T18:22:30.257Z,111.53
2022-08-16T18:25:05.270Z,113.73
2022-08-16T18:27:38.590Z,109.93
2022-08-16T18:30:10.729Z,112.00
2022-08-16T18:32:50.406Z,113.70
2022-08-16T18:35:22.287Z,108.43
2022-08-16T18:37:53.981Z,111.53
2022-08-16T18:40:26.185Z,116.20
2022-08-16T18:43:05.933Z,115.87
2022-08-16T18:45:39.730Z,111.20
2022-08-16T18:48:13.485Z,110.78
2022-08-16T18:51:03.947Z,108.70
2022-08-16T18:53:38.843Z,112.93
2022-08-16T18:56:11.887Z,107.50
2022-08-16T18:58:43.496Z,107.73
2022-08-16T19:01:15.228Z,106.97
2022-08-16T19:03:46.855Z,111.10
2022-08-16T19:06:18.566Z,110.17
2022-08-16T19:08:50.245Z,106.20
2022-08-16T19:11:23.513Z,111.03
2022-08-16T19:13:55.223Z,108.15
2022-08-16T19:16:27.064Z,110.37
2022-08-16T19:18:58.686Z,113.47
2022-08-16T19:21:30.296Z,108.20
2022-08-16T19:24:02.057Z,109.27
2022-08-16T19:26:35.215Z,111.25
2022-08-16T19:29:08.381Z,108.13
2022-08-16T19:31:40.335Z,110.67
2022-08-16T19:34:13.200Z,109.77
2022-08-16T19:36:44.969Z,108.23
2022-08-16T19:39:16.646Z,103.97
2022-08-16T19:41:53.594Z,110.13
2022-08-16T19:44:27.179Z,107.77
2022-08-16T19:46:58.958Z,110.22
2022-08-16T19:49:30.543Z,108.67
2022-08-16T19:52:19.353Z,110.73
2022-08-16T19:54:54.146Z,103.20
2022-08-16T19:57:26.142Z,103.40
2022-08-16T20:00:01.732Z,104.67
2022-08-16T20:02:47.176Z,104.73
2022-08-16T20:05:28.249Z,109.30
2022-08-16T20:08:04.571Z,111.50
2022-08-16T20:10:36.905Z,106.63
2022-08-16T20:13:20.647Z,103.50
2022-08-16T20:15:52.887Z,105.13
2022-08-16T20:18:25.706Z,105.63
2022-08-16T20:20:57.386Z,106.27
2022-08-16T20:23:29.158Z,104.43
2022-08-16T20:26:00.788Z,104.93
2022-08-16T20:28:52.834Z,102.78
2022-08-16T20:31:26.102Z,106.10
2022-08-16T20:33:57.768Z,106.87
2022-08-16T20:36:29.876Z,105.77
2022-08-16T20:39:04.876Z,106.80
2022-08-16T20:41:36.503Z,108.37
2022-08-16T20:44:10.254Z,105.50
2022-08-16T20:46:41.906Z,105.18
2022-08-16T20:49:13.529Z,106.47
2022-08-16T20:51:49.947Z,102.63
2022-08-16T20:54:23.018Z,105.17
2022-08-16T20:56:54.682Z,105.77
2022-08-16T20:59:26.541Z,105.93
2022-08-16T21:01:58.222Z,98.80
2022-08-16T21:04:29.909Z,102.97
2022-08-16T21:07:01.657Z,101.80
2022-08-16T21:09:35.829Z,103.50
2022-08-16T21:14:44.980Z,105.00
2022-08-16T21:17:17.203Z,106.83
2022-08-16T21:19:48.870Z,107.47
2022-08-16T21:22:22.937Z,104.87
2022-08-16T21:27:30.851Z,101.60
2022-08-16T21:30:02.610Z,102.47
2022-08-16T21:32:35.713Z,104.47
2022-08-16T21:35:12.653Z,104.82
2022-08-16T21:38:00.999Z,101.57
2022-08-16T21:40:37.831Z,102.30
2022-08-16T21:43:17.165Z,101.93
2022-08-16T21:45:54.182Z,105.27
2022-08-16T21:48:34.697Z,101.63
2022-08-16T21:51:13.261Z,102.13
2022-08-16T21:53:44.905Z,101.93
2022-08-16T21:56:17.442Z,97.53
2022-08-16T21:58:53.109Z,96.77
2022-08-16T22:01:26.430Z,96.80
2022-08-16T22:04:35.736Z,102.17
2022-08-16T22:06:51.070Z,100.87
2022-08-16T22:09:22.936Z,96.07
2022-08-16T22:11:54.562Z,97.33
2022-08-16T22:14:26.115Z,103.50
2022-08-16T22:16:57.939Z,95.93
2022-08-16T22:19:29.986Z,101.47
2022-08-16T22:22:01.698Z,99.27
2022-08-16T22:24:33.444Z,96.87
2022-08-16T22:27:05.323Z,95.23
2022-08-16T22:29:39.458Z,93.60
2022-08-16T22:32:13.878Z,89.30
2022-08-16T22:34:45.517Z,96.87
2022-08-16T22:37:17.142Z,94.37
2022-08-16T22:39:48.782Z,94.20
2022-08-16T22:42:20.435Z,93.40
2022-08-16T22:44:52.502Z,96.23
2022-08-16T22:47:25.735Z,94.50
2022-08-16T22:49:57.297Z,92.90
2022-08-16T22:52:36.840Z,95.73
2022-08-16T22:55:20.786Z,93.93
2022-08-16T22:57:53.586Z,89.50
2022-08-16T23:00:30.955Z,88.90
2022-08-16T23:03:14.804Z,97.67
2022-08-16T23:05:55.706Z,91.28
2022-08-16T23:08:38.128Z,92.57
2022-08-16T23:11:22.451Z,89.45
2022-08-16T23:13:56.200Z,95.37
2022-08-16T23:16:33.311Z,91.25
2022-08-16T23:19:08.930Z,91.83
2022-08-16T23:21:44.367Z,93.03
2022-08-16T23:24:19.206Z,95.47
2022-08-16T23:26:50.898Z,97.17
2022-08-16T23:29:25.366Z,94.53
2022-08-16T23:32:10.680Z,93.07
2022-08-16T23:34:42.363Z,91.90
2022-08-16T23:37:13.953Z,89.83
2022-08-16T23:39:45.612Z,95.17
2022-08-16T23:42:52.089Z,87.90
2022-08-16T23:45:09.237Z,91.73
2022-08-16T23:47:40.818Z,93.83
2022-08-16T23:50:12.416Z,91.30
2022-08-16T23:53:05.983Z,92.93
2022-08-16T23:55:41.441Z,95.50
2022-08-16T23:58:15.793Z,89.33
